createdAt,value
2022-12-20T00:01:24.582Z,4.03
2022-12-20T00:03:51.740Z,3.42
2022-12-20T00:06:21.129Z,6.53
2022-12-20T00:08:49.072Z,4.60
2022-12-20T00:11:15.524Z,6.35
2022-12-20T00:13:47.749Z,5.05
2022-12-20T00:16:20.978Z,4.97
2022-12-20T00:18:47.764Z,5.05
2022-12-20T00:21:15.116Z,6.38
2022-12-20T00:23:42.345Z,5.22
2022-12-20T00:26:12.496Z,4.35
2022-12-20T00:28:39.324Z,3.55
2022-12-20T00:31:06.277Z,4.28
2022-12-20T00:33:38.072Z,5.15
2022-12-20T00:36:05.563Z,2.47
2022-12-20T00:38:32.438Z,6.68
2022-12-20T00:40:59.721Z,3.75
2022-12-20T00:43:28.630Z,4.85
2022-12-20T00:45:56.406Z,5.15
2022-12-20T00:48:23.890Z,5.35
2022-12-20T00:50:53.420Z,5.55
2022-12-20T00:53:26.224Z,3.90
2022-12-20T00:55:53.277Z,4.78
2022-12-20T00:58:21.147Z,2.97
2022-12-20T01:00:55.800Z,6.05
2022-12-20T01:03:23.301Z,3.70
2022-12-20T01:05:51.471Z,4.82
2022-12-20T01:08:20.975Z,4.75
2022-12-20T01:10:48.122Z,3.47
2022-12-20T01:13:14.819Z,6.97
2022-12-20T01:15:41.287Z,6.25
2022-12-20T01:18:07.645Z,4.10
2022-12-20T01:20:34.161Z,6.63
2022-12-20T01:23:03.006Z,4.75
2022-12-20T01:25:32.544Z,5.32
2022-12-20T01:28:06.351Z,8.20
2022-12-20T01:30:32.664Z,4.25
2022-12-20T01:33:01.533Z,5.57
2022-12-20T01:35:30.188Z,6.90
2022-12-20T01:37:56.583Z,4.82
2022-12-20T01:40:30.162Z,5.53
2022-12-20T01:42:56.479Z,3.65
2022-12-20T01:45:27.554Z,4.45
2022-12-20T01:47:59.201Z,6.70
2022-12-20T01:50:26.528Z,5.00
2022-12-20T01:52:53.435Z,3.95
2022-12-20T01:55:26.185Z,3.20
2022-12-20T01:58:00.704Z,4.40
2022-12-20T02:00:28.808Z,4.93
2022-12-20T02:03:04.010Z,5.30
2022-12-20T02:08:17.034Z,3.50
2022-12-20T02:10:46.563Z,4.25
2022-12-20T02:13:19.860Z,4.35
2022-12-20T02:15:58.733Z,5.25
2022-12-20T02:18:28.145Z,3.53
2022-12-20T02:21:12.829Z,4.18
2022-12-20T02:24:01.084Z,4.20
2022-12-20T02:26:49.537Z,3.92
2022-12-20T02:29:24.847Z,5.03
2022-12-20T02:32:09.971Z,5.50
2022-12-20T02:34:43.771Z,4.10
2022-12-20T02:37:12.500Z,6.10
2022-12-20T02:39:40.119Z,3.08
2022-12-20T02:42:08.064Z,4.72
2022-12-20T02:44:54.894Z,5.65
2022-12-20T02:47:24.406Z,4.80
2022-12-20T02:49:53.912Z,7.53
2022-12-20T02:52:21.211Z,5.00
2022-12-20T02:54:48.053Z,7.22
2022-12-20T02:57:18.116Z,5.43
2022-12-20T02:59:50.539Z,6.70
2022-12-20T03:02:19.542Z,3.83
2022-12-20T03:04:49.375Z,3.03
2022-12-20T03:07:17.785Z,3.70
2022-12-20T03:09:44.566Z,6.60
2022-12-20T03:12:13.923Z,4.53
2022-12-20T03:14:42.438Z,5.07
2022-12-20T03:17:14.760Z,3.40
2022-12-20T03:19:44.006Z,2.78
2022-12-20T03:22:10.555Z,3.20
2022-12-20T03:24:38.464Z,3.28
2022-12-20T03:27:06.652Z,4.97
2022-12-20T03:29:34.634Z,3.00
2022-12-20T03:32:05.905Z,5.20
2022-12-20T03:34:32.466Z,5.18
2022-12-20T03:36:58.921Z,4.80
2022-12-20T03:39:25.294Z,3.20
2022-12-20T03:42:07.685Z,4.97
2022-12-20T03:44:39.216Z,4.57
2022-12-20T03:47:06.389Z,4.57
2022-12-20T03:49:38.199Z,6.15
2022-12-20T03:52:08.471Z,5.72
2022-12-20T03:54:36.155Z,7.30
2022-12-20T03:57:20.213Z,5.05
2022-12-20T03:59:55.167Z,4.18
2022-12-20T04:02:22.861Z,7.83
2022-12-20T04:04:49.433Z,5.68
2022-12-20T04:07:17.811Z,5.18
2022-12-20T04:09:44.210Z,4.75
2022-12-20T04:12:15.435Z,3.95
2022-12-20T04:17:22.392Z,3.92
2022-12-20T04:19:48.818Z,5.90
2022-12-20T04:22:15.357Z,3.40
2022-12-20T04:24:47.283Z,4.10
2022-12-20T04:27:16.622Z,5.43
2022-12-20T04:29:45.851Z,5.10
2022-12-20T04:32:24.982Z,4.18
2022-12-20T04:34:54.376Z,5.15
2022-12-20T04:37:23.523Z,5.63
2022-12-20T04:39:56.882Z,5.53
2022-12-20T04:42:25.402Z,5.35
2022-12-20T04:44:56.701Z,3.70
2022-12-20T04:47:23.448Z,6.20
2022-12-20T04:49:50.055Z,3.60
2022-12-20T04:52:43.465Z,3.45
2022-12-20T04:55:17.799Z,8.50
2022-12-20T04:57:45.422Z,5.22
2022-12-20T05:00:12.197Z,3.35
2022-12-20T05:02:44.293Z,3.88
2022-12-20T05:05:12.022Z,5.20
2022-12-20T05:07:38.589Z,3.47
2022-12-20T05:10:05.266Z,4.38
2022-12-20T05:12:31.776Z,4.53
2022-12-20T05:14:59.790Z,3.55
2022-12-20T05:17:26.324Z,5.70
2022-12-20T05:19:53.934Z,4.75
2022-12-20T05:22:40.338Z,6.97
2022-12-20T05:25:25.704Z,4.78
2022-12-20T05:27:52.191Z,5.97
2022-12-20T05:30:18.779Z,5.22
2022-12-20T05:32:47.865Z,2.75
2022-12-20T05:35:14.746Z,3.63
2022-12-20T05:37:46.367Z,3.50
2022-12-20T05:40:15.908Z,4.35
2022-12-20T05:45:22.632Z,6.63
2022-12-20T05:47:49.187Z,5.55
2022-12-20T05:50:19.214Z,3.65
2022-12-20T05:52:47.286Z,6.07
2022-12-20T05:55:13.947Z,3.28
2022-12-20T05:57:40.413Z,4.95
2022-12-20T06:00:08.229Z,2.83
2022-12-20T06:02:34.822Z,5.60
2022-12-20T06:05:03.915Z,4.13
2022-12-20T06:07:31.755Z,2.63
2022-12-20T06:10:01.628Z,4.85
2022-12-20T06:12:28.212Z,3.60
2022-12-20T06:14:54.713Z,4.00
2022-12-20T06:17:21.881Z,4.60
2022-12-20T06:19:49.446Z,4.55
2022-12-20T06:22:17.333Z,4.90
2022-12-20T06:24:48.252Z,3.05
2022-12-20T06:27:16.746Z,4.97
2022-12-20T06:29:49.523Z,5.57
2022-12-20T06:32:25.414Z,3.60
2022-12-20T06:37:27.908Z,3.30
2022-12-20T06:39:54.220Z,5.78
2022-12-20T06:42:20.539Z,2.97
2022-12-20T06:44:46.896Z,5.00
2022-12-20T06:47:13.252Z,3.75
2022-12-20T06:49:39.770Z,5.78
2022-12-20T06:52:06.107Z,3.65
2022-12-20T06:54:32.447Z,5.90
2022-12-20T06:56:58.817Z,4.55
2022-12-20T06:59:25.133Z,4.78
2022-12-20T07:01:52.506Z,4.30
2022-12-20T07:04:19.571Z,5.50
2022-12-20T07:06:45.935Z,4.38
2022-12-20T07:09:12.267Z,6.20
2022-12-20T07:11:38.761Z,4.35
2022-12-20T07:14:05.089Z,3.97
2022-12-20T07:16:32.403Z,3.08
2022-12-20T07:18:58.841Z,2.72
2022-12-20T07:21:25.171Z,4.40
2022-12-20T07:23:52.413Z,4.55
2022-12-20T07:26:18.858Z,4.93
2022-12-20T07:28:45.231Z,4.25
2022-12-20T07:31:11.630Z,2.15
2022-12-20T07:33:38.858Z,5.68
2022-12-20T07:36:06.808Z,3.70
2022-12-20T07:38:33.824Z,6.88
2022-12-20T07:41:00.269Z,8.43
2022-12-20T07:43:26.596Z,3.08
2022-12-20T07:45:56.978Z,2.80
2022-12-20T07:48:24.139Z,7.28
2022-12-20T07:50:55.974Z,5.80
2022-12-20T07:53:23.505Z,3.17
2022-12-20T07:55:50.342Z,6.43
2022-12-20T07:58:18.777Z,5.28
2022-12-20T08:00:45.192Z,5.25
2022-12-20T08:03:19.977Z,4.43
2022-12-20T08:05:47.763Z,4.95
2022-12-20T08:08:15.071Z,4.82
2022-12-20T08:10:41.529Z,4.03
2022-12-20T08:13:08.007Z,5.07
2022-12-20T08:15:35.263Z,4.53
2022-12-20T08:18:01.763Z,2.75
2022-12-20T08:20:28.155Z,7.60
2022-12-20T08:22:54.505Z,5.32
2022-12-20T08:25:21.597Z,7.85
2022-12-20T08:27:47.932Z,2.83
2022-12-20T08:30:14.416Z,3.42
2022-12-20T08:32:41.034Z,2.97
2022-12-20T08:35:07.940Z,2.78
2022-12-20T08:37:34.446Z,6.13
2022-12-20T08:40:00.932Z,5.35
2022-12-20T08:42:27.695Z,5.28
2022-12-20T08:44:55.562Z,2.67
2022-12-20T08:47:21.910Z,2.88
2022-12-20T08:49:48.398Z,3.92
2022-12-20T08:52:14.728Z,2.97
2022-12-20T08:54:41.113Z,3.72
2022-12-20T08:57:08.036Z,4.55
2022-12-20T08:59:34.348Z,6.00
2022-12-20T09:02:00.756Z,5.68
2022-12-20T09:04:27.174Z,2.92
2022-12-20T09:06:53.627Z,7.05
2022-12-20T09:09:20.037Z,6.68
2022-12-20T09:11:46.735Z,5.55
2022-12-20T09:14:13.077Z,6.10
2022-12-20T09:16:39.473Z,3.90
2022-12-20T09:19:06.605Z,5.40
2022-12-20T09:21:33.808Z,2.63
2022-12-20T09:24:00.173Z,10.10
2022-12-20T09:26:26.597Z,4.40
2022-12-20T09:28:52.918Z,4.80
2022-12-20T09:31:21.283Z,4.25
2022-12-20T09:33:47.948Z,4.22
2022-12-20T09:36:15.450Z,4.72
2022-12-20T09:38:41.977Z,3.90
2022-12-20T09:41:09.218Z,6.43
2022-12-20T09:43:36.826Z,4.75
2022-12-20T09:46:04.237Z,4.95
2022-12-20T09:48:32.613Z,4.70
2022-12-20T09:51:07.969Z,8.13
2022-12-20T09:53:53.314Z,4.15
2022-12-20T09:56:31.976Z,4.17
2022-12-20T09:59:06.028Z,3.80
2022-12-20T10:01:38.794Z,3.83
2022-12-20T10:04:07.719Z,6.35
2022-12-20T10:06:49.275Z,4.55
2022-12-20T10:09:34.566Z,4.32
2022-12-20T10:12:00.937Z,6.60
2022-12-20T10:14:27.393Z,4.88
2022-12-20T10:16:57.004Z,4.95
2022-12-20T10:19:34.684Z,4.97
2022-12-20T10:22:01.013Z,7.43
2022-12-20T10:24:31.359Z,4.28
2022-12-20T10:27:02.022Z,5.88
2022-12-20T10:29:29.656Z,3.75
2022-12-20T10:31:59.750Z,5.25
2022-12-20T10:34:28.890Z,8.52
2022-12-20T10:37:12.732Z,4.20
2022-12-20T10:39:43.050Z,2.45
2022-12-20T10:42:24.606Z,5.95
2022-12-20T10:44:51.190Z,3.97
2022-12-20T10:47:38.318Z,5.60
2022-12-20T10:50:15.894Z,6.50
2022-12-20T10:52:42.568Z,5.63
2022-12-20T10:55:28.982Z,5.22
2022-12-20T10:57:55.360Z,6.28
2022-12-20T11:00:29.740Z,5.00
2022-12-20T11:03:25.598Z,3.30
2022-12-20T11:05:53.563Z,4.45
2022-12-20T11:08:36.636Z,6.60
2022-12-20T11:11:16.198Z,4.03
2022-12-20T11:13:43.756Z,4.75
2022-12-20T11:16:31.058Z,5.78
2022-12-20T11:19:06.824Z,4.28
2022-12-20T11:21:42.149Z,4.32
2022-12-20T11:24:14.345Z,4.95
2022-12-20T11:26:40.851Z,7.43
2022-12-20T11:29:19.489Z,8.20
2022-12-20T11:32:01.160Z,3.75
2022-12-20T11:34:39.028Z,4.10
2022-12-20T11:37:25.644Z,5.25
2022-12-20T11:40:10.597Z,8.52
2022-12-20T11:42:55.013Z,4.35
2022-12-20T11:45:36.853Z,4.93
2022-12-20T11:48:22.066Z,4.00
2022-12-20T11:51:10.964Z,4.95
2022-12-20T11:53:41.429Z,4.50
2022-12-20T11:56:30.863Z,3.72
2022-12-20T11:59:03.700Z,7.78
2022-12-20T12:01:40.948Z,8.65
2022-12-20T12:04:19.876Z,4.10
2022-12-20T12:06:48.524Z,7.88
2022-12-20T12:09:21.930Z,3.92
2022-12-20T12:12:11.684Z,4.07
2022-12-20T12:14:46.959Z,3.13
2022-12-20T12:17:24.750Z,4.03
2022-12-20T12:19:53.623Z,7.07
2022-12-20T12:22:23.877Z,5.20
2022-12-20T12:24:53.052Z,8.40
2022-12-20T12:27:26.503Z,7.00
2022-12-20T12:29:54.425Z,6.32
2022-12-20T12:32:24.005Z,5.38
2022-12-20T12:35:03.595Z,4.88
2022-12-20T12:37:39.643Z,5.30
2022-12-20T12:40:19.274Z,5.18
2022-12-20T12:43:04.448Z,2.72
2022-12-20T12:45:34.838Z,4.45
2022-12-20T12:48:20.062Z,7.15
2022-12-20T12:50:48.023Z,6.00
2022-12-20T12:53:19.553Z,3.05
2022-12-20T12:55:50.531Z,3.72
2022-12-20T12:58:23.267Z,3.80
2022-12-20T13:00:53.916Z,6.05
2022-12-20T13:03:58.683Z,4.15
2022-12-20T13:06:31.132Z,11.80
2022-12-20T13:09:00.312Z,5.13
2022-12-20T13:11:44.489Z,3.70
2022-12-20T13:14:25.237Z,3.72
2022-12-20T13:19:40.309Z,3.72
2022-12-20T13:22:06.664Z,6.43
2022-12-20T13:24:48.378Z,7.35
2022-12-20T13:27:23.566Z,6.82
2022-12-20T13:29:58.641Z,4.82
2022-12-20T13:32:43.752Z,3.10
2022-12-20T13:35:25.363Z,5.65
2022-12-20T13:37:54.745Z,6.07
2022-12-20T13:40:25.970Z,3.72
2022-12-20T13:42:54.473Z,4.30
2022-12-20T13:45:20.935Z,2.97
2022-12-20T13:47:49.784Z,8.90
2022-12-20T13:50:40.559Z,4.13
2022-12-20T13:53:14.887Z,4.40
2022-12-20T13:55:42.822Z,5.30
2022-12-20T13:58:14.074Z,3.53
2022-12-20T14:00:41.089Z,4.38
2022-12-20T14:03:14.372Z,4.43
2022-12-20T14:05:41.017Z,3.50
2022-12-20T14:08:09.021Z,5.28
2022-12-20T14:10:35.849Z,9.13
2022-12-20T14:13:02.593Z,4.72
2022-12-20T14:15:30.652Z,3.40
2022-12-20T14:17:57.061Z,4.63
2022-12-20T14:20:25.384Z,9.27
2022-12-20T14:22:57.879Z,4.68
2022-12-20T14:25:38.832Z,5.75
2022-12-20T14:28:05.557Z,5.65
2022-12-20T14:30:36.651Z,7.32
2022-12-20T14:33:03.154Z,4.97
2022-12-20T14:35:29.692Z,7.13
2022-12-20T14:37:57.649Z,4.78
2022-12-20T14:40:24.194Z,7.18
2022-12-20T14:42:50.627Z,5.10
2022-12-20T14:45:28.053Z,6.35
2022-12-20T14:47:59.283Z,6.32
2022-12-20T14:50:28.830Z,4.95
2022-12-20T14:52:55.957Z,4.60
2022-12-20T14:55:25.138Z,7.40
2022-12-20T14:57:53.085Z,9.13
2022-12-20T15:00:29.528Z,9.60
2022-12-20T15:03:02.257Z,5.00
2022-12-20T15:05:35.038Z,4.82
2022-12-20T15:08:37.025Z,6.20
2022-12-20T15:11:03.893Z,7.07
2022-12-20T15:13:32.143Z,5.88
2022-12-20T15:15:59.830Z,4.75
2022-12-20T15:18:26.250Z,4.45
2022-12-20T15:21:06.127Z,6.00
2022-12-20T15:23:33.045Z,6.45
2022-12-20T15:25:59.385Z,4.18
2022-12-20T15:28:26.365Z,5.80
2022-12-20T15:30:53.575Z,8.15
2022-12-20T15:33:21.771Z,3.85
2022-12-20T15:35:48.380Z,6.00
2022-12-20T15:38:16.650Z,5.18
2022-12-20T15:40:43.981Z,8.15
2022-12-20T15:43:14.727Z,6.50
2022-12-20T15:45:42.253Z,5.90
2022-12-20T15:48:18.805Z,5.13
2022-12-20T15:50:49.325Z,5.70
2022-12-20T15:53:16.723Z,5.32
2022-12-20T15:55:43.350Z,5.13
2022-12-20T15:58:10.034Z,6.32
2022-12-20T16:00:41.148Z,4.63
2022-12-20T16:03:18.254Z,7.72
2022-12-20T16:05:44.909Z,7.97
2022-12-20T16:08:11.261Z,5.55
2022-12-20T16:10:37.768Z,5.55
2022-12-20T16:13:04.567Z,3.70
2022-12-20T16:15:30.976Z,5.57
2022-12-20T16:17:57.283Z,5.22
2022-12-20T16:20:23.632Z,5.72
2022-12-20T16:22:49.971Z,5.95
2022-12-20T16:25:33.009Z,5.50
2022-12-20T16:27:59.404Z,4.53
2022-12-20T16:30:26.251Z,4.38
2022-12-20T16:32:53.024Z,6.55
2022-12-20T16:35:30.055Z,5.90
2022-12-20T16:37:57.198Z,4.68
2022-12-20T16:40:24.547Z,5.88
2022-12-20T16:42:50.950Z,6.05
2022-12-20T16:45:18.712Z,5.88
2022-12-20T16:47:45.919Z,4.63
2022-12-20T16:50:12.459Z,5.13
2022-12-20T16:52:38.952Z,5.68
2022-12-20T16:55:05.978Z,6.30
2022-12-20T16:57:32.516Z,6.85
2022-12-20T16:59:58.830Z,10.88
2022-12-20T17:02:29.190Z,10.45
2022-12-20T17:04:56.062Z,6.70
2022-12-20T17:07:22.603Z,6.90
2022-12-20T17:12:32.874Z,7.80
2022-12-20T17:14:59.185Z,9.85
2022-12-20T17:17:25.600Z,9.07
2022-12-20T17:19:51.987Z,10.70
2022-12-20T17:22:24.425Z,10.88
2022-12-20T17:24:50.794Z,10.68
2022-12-20T17:27:17.114Z,9.32
2022-12-20T17:29:43.820Z,10.30
2022-12-20T17:32:30.453Z,9.05
2022-12-20T17:34:56.829Z,11.40
2022-12-20T17:37:24.616Z,9.00
2022-12-20T17:39:50.946Z,9.73
2022-12-20T17:42:17.377Z,8.38
2022-12-20T17:44:43.837Z,11.20
2022-12-20T17:47:11.468Z,9.85
2022-12-20T17:49:37.879Z,8.85
2022-12-20T17:52:04.341Z,9.75
2022-12-20T17:54:39.005Z,10.20
2022-12-20T17:59:32.745Z,9.52
2022-12-20T18:01:59.506Z,10.27
2022-12-20T18:04:26.703Z,9.80
2022-12-20T18:06:53.203Z,11.40
2022-12-20T18:09:20.528Z,9.75
2022-12-20T18:11:47.122Z,11.15
2022-12-20T18:14:14.201Z,14.52
2022-12-20T18:16:40.969Z,12.63
2022-12-20T18:19:08.129Z,9.48
2022-12-20T18:21:34.836Z,15.75
2022-12-20T18:24:01.159Z,13.70
2022-12-20T18:26:28.882Z,18.05
2022-12-20T18:28:56.583Z,17.35
2022-12-20T18:31:27.547Z,14.85
2022-12-20T18:33:58.096Z,15.30
2022-12-20T18:36:26.307Z,17.38
2022-12-20T18:38:53.035Z,15.52
2022-12-20T18:41:26.579Z,14.93
2022-12-20T18:43:53.567Z,16.23
2022-12-20T18:46:20.784Z,18.20
2022-12-20T18:48:47.900Z,17.00
2022-12-20T18:51:15.718Z,13.13
2022-12-20T18:53:42.977Z,14.63
2022-12-20T18:56:10.501Z,18.85
2022-12-20T18:58:36.929Z,13.57
2022-12-20T19:01:07.501Z,24.98
2022-12-20T19:03:33.934Z,14.00
2022-12-20T19:06:00.327Z,15.65
2022-12-20T19:08:28.283Z,18.88
2022-12-20T19:10:57.791Z,18.58
2022-12-20T19:13:24.166Z,16.98
2022-12-20T19:15:59.613Z,14.80
2022-12-20T19:18:25.931Z,14.10
2022-12-20T19:20:52.301Z,15.13
2022-12-20T19:23:20.672Z,21.60
2022-12-20T19:25:47.033Z,21.27
2022-12-20T19:28:13.595Z,24.63
2022-12-20T19:30:39.977Z,14.35
2022-12-20T19:33:06.319Z,14.88
2022-12-20T19:35:54.840Z,17.73
2022-12-20T19:38:19.574Z,11.80
2022-12-20T19:40:50.696Z,21.30
2022-12-20T19:43:17.029Z,11.50
2022-12-20T19:45:43.411Z,15.32
2022-12-20T19:48:10.300Z,13.48
2022-12-20T19:50:36.827Z,16.40
2022-12-20T19:53:03.295Z,14.70
2022-12-20T19:55:29.686Z,13.75
2022-12-20T19:57:56.021Z,10.98
2022-12-20T20:00:22.530Z,11.48
2022-12-20T20:02:48.981Z,11.45
2022-12-20T20:05:15.649Z,11.65
2022-12-20T20:07:42.637Z,11.02
2022-12-20T20:10:09.822Z,14.20
2022-12-20T20:12:38.305Z,14.30
2022-12-20T20:15:04.955Z,11.40
2022-12-20T20:17:31.301Z,6.93
2022-12-20T20:19:57.645Z,11.20
2022-12-20T20:22:24.126Z,13.15
2022-12-20T20:24:50.773Z,9.23
2022-12-20T20:27:17.175Z,13.07
2022-12-20T20:29:43.734Z,10.32
2022-12-20T20:32:10.060Z,9.35
2022-12-20T20:34:36.395Z,13.05
2022-12-20T20:37:02.865Z,20.35
2022-12-20T20:39:29.223Z,8.13
2022-12-20T20:41:55.518Z,9.75
2022-12-20T20:44:21.882Z,14.93
2022-12-20T20:46:48.293Z,11.55
2022-12-20T20:49:14.653Z,10.52
2022-12-20T20:51:41.445Z,11.75
2022-12-20T20:54:07.759Z,10.93
2022-12-20T20:56:34.133Z,14.32
2022-12-20T20:59:05.268Z,14.63
2022-12-20T21:01:32.498Z,11.90
2022-12-20T21:03:59.174Z,14.50
2022-12-20T21:06:40.017Z,15.25
2022-12-20T21:09:07.191Z,18.02
2022-12-20T21:11:33.854Z,14.10
2022-12-20T21:14:00.319Z,11.98
2022-12-20T21:16:26.742Z,14.55
2022-12-20T21:18:54.052Z,14.68
2022-12-20T21:21:20.886Z,10.65
2022-12-20T21:23:48.070Z,11.35
2022-12-20T21:26:15.597Z,13.20
2022-12-20T21:28:43.721Z,11.32
2022-12-20T21:31:11.720Z,15.77
2022-12-20T21:33:38.389Z,14.50
2022-12-20T21:36:10.412Z,16.60
2022-12-20T21:38:36.736Z,16.08
2022-12-20T21:41:04.470Z,14.90
2022-12-20T21:43:30.802Z,14.57
2022-12-20T21:45:57.334Z,13.55
2022-12-20T21:48:24.346Z,12.80
2022-12-20T21:51:00.022Z,15.80
2022-12-20T21:53:26.510Z,13.25
2022-12-20T21:55:56.925Z,19.13
2022-12-20T21:58:23.923Z,14.13
2022-12-20T22:00:54.577Z,12.32
2022-12-20T22:03:22.320Z,15.10
2022-12-20T22:05:49.749Z,12.98
2022-12-20T22:08:16.496Z,12.57
2022-12-20T22:10:43.034Z,11.80
2022-12-20T22:13:10.244Z,11.93
2022-12-20T22:15:40.819Z,14.63
2022-12-20T22:18:07.717Z,15.38
2022-12-20T22:20:35.049Z,12.43
2022-12-20T22:23:01.831Z,15.85
2022-12-20T22:25:28.458Z,11.50
2022-12-20T22:27:54.783Z,11.10
2022-12-20T22:30:21.279Z,15.63
2022-12-20T22:32:48.313Z,11.55
2022-12-20T22:35:22.218Z,13.20
2022-12-20T22:37:48.975Z,15.43
2022-12-20T22:40:15.520Z,8.10
2022-12-20T22:42:41.849Z,11.35
2022-12-20T22:45:08.575Z,10.57
2022-12-20T22:47:35.232Z,14.60
2022-12-20T22:50:01.568Z,12.02
2022-12-20T22:52:27.914Z,8.98
2022-12-20T22:54:54.225Z,10.73
2022-12-20T22:57:20.572Z,14.30
2022-12-20T22:59:46.890Z,11.02
2022-12-20T23:02:13.331Z,10.48
2022-12-20T23:04:39.942Z,15.75
2022-12-20T23:07:07.343Z,14.70
2022-12-20T23:09:33.735Z,11.10
2022-12-20T23:12:18.824Z,9.80
2022-12-20T23:15:04.594Z,7.18
2022-12-20T23:17:32.277Z,15.20
2022-12-20T23:20:17.571Z,8.75
2022-12-20T23:22:45.041Z,13.15
2022-12-20T23:25:12.914Z,8.45
2022-12-20T23:27:40.186Z,11.25
2022-12-20T23:30:07.399Z,13.50
2022-12-20T23:32:33.897Z,16.20
2022-12-20T23:35:00.289Z,14.80
2022-12-20T23:37:28.436Z,11.27
2022-12-20T23:39:54.746Z,12.65
2022-12-20T23:42:21.181Z,9.18
2022-12-20T23:44:47.571Z,10.20
2022-12-20T23:47:18.633Z,11.88
2022-12-20T23:49:45.507Z,11.32
2022-12-20T23:52:11.877Z,12.93
2022-12-20T23:54:38.207Z,13.18
2022-12-20T23:57:04.639Z,14.07
2022-12-20T23:59:30.935Z,16.70
